createdAt,value
2019-05-15T00:01:20.248Z,23.77
2019-05-15T00:03:52.332Z,22.15
2019-05-15T00:06:23.687Z,21.00
2019-05-15T00:08:55.106Z,21.97
2019-05-15T00:11:28.620Z,21.42
2019-05-15T00:13:59.698Z,23.10
2019-05-15T00:16:31.097Z,23.18
2019-05-15T00:19:02.518Z,22.80
2019-05-15T00:21:34.914Z,22.90
2019-05-15T00:24:12.807Z,23.50
2019-05-15T00:26:39.425Z,23.47
2019-05-15T00:29:15.794Z,24.63
2019-05-15T00:31:44.068Z,25.68
2019-05-15T00:34:15.521Z,25.35
2019-05-15T00:36:48.947Z,25.27
2019-05-15T00:39:19.907Z,27.45
2019-05-15T00:41:54.585Z,27.80
2019-05-15T00:44:24.395Z,27.02
2019-05-15T00:46:58.087Z,27.37
2019-05-15T00:49:30.111Z,27.17
2019-05-15T00:52:01.544Z,28.38
2019-05-15T00:54:32.939Z,26.25
2019-05-15T00:57:04.391Z,28.83
2019-05-15T00:59:35.791Z,27.82
2019-05-15T01:02:08.688Z,27.65
2019-05-15T01:04:40.241Z,28.38
2019-05-15T01:07:11.689Z,28.10
2019-05-15T01:09:43.049Z,29.32
2019-05-15T01:12:14.432Z,28.67
2019-05-15T01:14:45.894Z,29.30
2019-05-15T01:17:18.462Z,30.15
2019-05-15T01:19:49.970Z,29.87
2019-05-15T01:22:21.329Z,30.50
2019-05-15T01:24:52.728Z,29.02
2019-05-15T01:27:24.015Z,30.72
2019-05-15T01:29:55.451Z,31.17
2019-05-15T01:32:28.418Z,31.30
2019-05-15T01:34:59.991Z,33.23
2019-05-15T01:37:31.441Z,31.95
2019-05-15T01:40:02.839Z,30.35
2019-05-15T01:42:34.248Z,29.35
2019-05-15T01:45:05.809Z,32.05
2019-05-15T01:47:39.006Z,33.02
2019-05-15T01:50:10.691Z,34.15
2019-05-15T01:52:42.027Z,34.40
2019-05-15T01:55:13.528Z,34.27
2019-05-15T01:57:45.032Z,33.28
2019-05-15T02:00:18.684Z,34.80
2019-05-15T02:02:49.595Z,35.55
2019-05-15T02:05:21.583Z,39.40
2019-05-15T02:07:53.028Z,39.65
2019-05-15T02:10:24.389Z,40.25
2019-05-15T02:12:55.798Z,39.05
2019-05-15T02:15:28.764Z,40.95
2019-05-15T02:18:00.211Z,40.05
2019-05-15T02:20:31.583Z,35.17
2019-05-15T02:23:03.867Z,33.88
2019-05-15T02:25:35.298Z,34.80
2019-05-15T02:28:09.098Z,33.53
2019-05-15T02:30:40.945Z,34.98
2019-05-15T02:33:12.727Z,34.53
2019-05-15T02:35:44.176Z,34.80
2019-05-15T02:38:15.759Z,36.75
2019-05-15T02:40:49.386Z,35.20
2019-05-15T02:43:20.286Z,35.10
2019-05-15T02:45:51.859Z,34.25
2019-05-15T02:48:23.204Z,34.00
2019-05-15T02:50:54.588Z,34.75
2019-05-15T02:53:25.933Z,35.43
2019-05-15T02:56:00.145Z,34.98
2019-05-15T02:58:30.519Z,34.33
2019-05-15T03:01:01.911Z,35.15
2019-05-15T03:03:33.355Z,33.67
2019-05-15T03:06:05.548Z,31.35
2019-05-15T03:08:39.550Z,33.95
2019-05-15T03:11:10.155Z,32.40
2019-05-15T03:13:41.535Z,30.97
2019-05-15T03:16:13.014Z,30.65
2019-05-15T03:18:44.441Z,30.82
2019-05-15T03:21:18.797Z,31.97
2019-05-15T03:23:51.019Z,30.40
2019-05-15T03:26:24.690Z,33.33
2019-05-15T03:28:58.832Z,31.27
2019-05-15T03:31:48.734Z,30.35
2019-05-15T03:34:03.614Z,30.15
2019-05-15T03:36:35.461Z,29.55
2019-05-15T03:39:09.704Z,30.82
2019-05-15T03:41:40.332Z,29.70
2019-05-15T03:44:11.688Z,30.85
2019-05-15T03:46:43.110Z,31.82
2019-05-15T03:49:14.658Z,33.05
2019-05-15T03:51:46.325Z,31.35
2019-05-15T03:54:19.049Z,30.92
2019-05-15T03:56:50.675Z,31.50
2019-05-15T03:59:22.124Z,32.20
2019-05-15T04:01:53.485Z,32.50
2019-05-15T04:04:24.882Z,33.02
2019-05-15T04:06:59.211Z,32.63
2019-05-15T04:09:29.654Z,34.08
2019-05-15T04:12:02.100Z,31.65
2019-05-15T04:14:33.466Z,32.25
2019-05-15T04:17:04.907Z,33.38
2019-05-15T04:19:39.025Z,31.42
2019-05-15T04:22:09.608Z,28.20
2019-05-15T04:24:41.345Z,28.62
2019-05-15T04:27:14.565Z,28.55
2019-05-15T04:29:49.063Z,26.97
2019-05-15T04:32:20.021Z,28.32
2019-05-15T04:34:51.709Z,26.70
2019-05-15T04:37:23.153Z,26.20
2019-05-15T04:39:54.575Z,28.12
2019-05-15T04:42:26.047Z,28.25
2019-05-15T04:44:59.637Z,28.60
2019-05-15T04:47:30.715Z,27.27
2019-05-15T04:50:02.149Z,25.48
2019-05-15T04:52:34.133Z,25.75
2019-05-15T04:55:10.188Z,25.90
2019-05-15T04:57:41.652Z,25.80
2019-05-15T05:00:19.714Z,26.17
2019-05-15T05:02:49.977Z,25.45
2019-05-15T05:05:21.368Z,26.17
2019-05-15T05:07:52.862Z,25.68
2019-05-15T05:10:25.497Z,25.70
2019-05-15T05:12:59.130Z,26.57
2019-05-15T05:15:30.069Z,26.45
2019-05-15T05:18:01.579Z,25.05
2019-05-15T05:20:33.074Z,23.65
2019-05-15T05:23:04.583Z,24.27
2019-05-15T05:25:38.668Z,24.75
2019-05-15T05:28:09.168Z,25.65
2019-05-15T05:30:40.669Z,24.32
2019-05-15T05:33:12.125Z,23.20
2019-05-15T05:35:43.495Z,22.80
2019-05-15T05:38:14.947Z,21.20
2019-05-15T05:40:46.332Z,19.75
2019-05-15T05:43:18.363Z,21.48
2019-05-15T05:45:51.150Z,21.90
2019-05-15T05:48:22.701Z,22.52
2019-05-15T05:50:54.134Z,23.67
2019-05-15T05:53:25.635Z,24.07
2019-05-15T05:55:58.078Z,23.32
2019-05-15T05:58:29.884Z,22.90
2019-05-15T06:01:01.512Z,22.45
2019-05-15T06:03:33.114Z,22.93
2019-05-15T06:06:04.538Z,21.33
2019-05-15T06:08:35.952Z,16.90
2019-05-15T06:11:09.817Z,20.08
2019-05-15T06:13:40.449Z,17.87
2019-05-15T06:16:11.890Z,17.40
2019-05-15T06:18:44.837Z,12.28
2019-05-15T06:21:18.250Z,12.75
2019-05-15T06:23:55.506Z,13.98
2019-05-15T06:26:22.693Z,17.35
2019-05-15T06:28:54.426Z,15.15
2019-05-15T06:31:27.963Z,13.55
2019-05-15T06:34:00.034Z,21.42
2019-05-15T06:36:31.456Z,14.30
2019-05-15T06:39:04.734Z,13.62
2019-05-15T06:41:36.108Z,13.43
2019-05-15T06:44:08.002Z,11.15
2019-05-15T06:46:39.551Z,9.75
2019-05-15T06:49:11.091Z,8.45
2019-05-15T06:51:42.613Z,7.62
2019-05-15T06:54:14.279Z,7.40
2019-05-15T06:56:49.304Z,8.93
2019-05-15T06:59:20.462Z,9.25
2019-05-15T07:01:52.986Z,9.20
2019-05-15T07:04:24.401Z,9.65
2019-05-15T07:06:58.189Z,11.45
2019-05-15T07:09:29.066Z,8.53
2019-05-15T07:12:00.426Z,7.30
2019-05-15T07:14:31.882Z,6.83
2019-05-15T07:17:03.158Z,8.15
2019-05-15T07:19:34.617Z,7.15
2019-05-15T07:22:05.979Z,5.45
2019-05-15T07:24:38.371Z,6.60
2019-05-15T07:27:11.361Z,6.92
2019-05-15T07:29:42.995Z,7.22
2019-05-15T07:32:14.307Z,9.40
2019-05-15T07:34:45.695Z,7.53
2019-05-15T07:37:19.054Z,8.48
2019-05-15T07:39:50.072Z,11.70
2019-05-15T07:42:21.541Z,12.70
2019-05-15T07:44:53.016Z,13.53
2019-05-15T07:47:24.394Z,11.12
2019-05-15T07:49:55.764Z,8.85
2019-05-15T07:52:28.827Z,11.85
2019-05-15T07:55:00.228Z,11.45
2019-05-15T07:57:31.662Z,12.45
2019-05-15T08:00:03.136Z,12.15
2019-05-15T08:02:34.743Z,12.43
2019-05-15T08:05:08.649Z,11.33
2019-05-15T08:07:40.196Z,12.70
2019-05-15T08:10:12.318Z,12.70
2019-05-15T08:12:43.792Z,12.37
2019-05-15T08:15:18.122Z,12.13
2019-05-15T08:18:03.978Z,12.25
2019-05-15T08:20:22.443Z,13.15
2019-05-15T08:22:53.832Z,9.55
2019-05-15T08:25:32.376Z,9.65
2019-05-15T08:27:59.139Z,10.13
2019-05-15T08:30:30.843Z,12.07
2019-05-15T08:33:02.221Z,13.40
2019-05-15T08:35:33.669Z,13.60
2019-05-15T08:38:05.034Z,12.13
2019-05-15T08:40:40.765Z,12.93
2019-05-15T08:43:11.579Z,14.28
2019-05-15T08:45:44.670Z,14.15
2019-05-15T08:48:18.255Z,14.25
2019-05-15T08:50:49.266Z,15.60
2019-05-15T08:53:21.311Z,13.90
2019-05-15T08:55:52.754Z,14.75
2019-05-15T08:58:24.127Z,14.65
2019-05-15T09:00:55.557Z,14.98
2019-05-15T09:03:29.363Z,16.65
2019-05-15T09:06:00.938Z,15.18
2019-05-15T09:08:32.481Z,15.80
2019-05-15T09:11:03.911Z,14.80
2019-05-15T09:13:35.414Z,13.78
2019-05-15T09:16:08.262Z,14.45
2019-05-15T09:18:39.866Z,13.55
2019-05-15T09:21:11.295Z,13.80
2019-05-15T09:23:42.732Z,14.43
2019-05-15T09:26:14.121Z,15.10
2019-05-15T09:28:45.619Z,16.20
2019-05-15T09:31:19.314Z,16.20
2019-05-15T09:33:50.227Z,16.82
2019-05-15T09:36:21.798Z,17.10
2019-05-15T09:38:53.109Z,16.20
2019-05-15T09:41:24.512Z,16.05
2019-05-15T09:43:57.875Z,15.93
2019-05-15T09:46:29.283Z,13.65
2019-05-15T09:49:00.691Z,14.75
2019-05-15T09:51:32.380Z,15.32
2019-05-15T09:54:03.825Z,15.40
2019-05-15T09:56:35.205Z,15.90
2019-05-15T09:59:08.881Z,14.33
2019-05-15T10:01:39.871Z,15.28
2019-05-15T10:04:11.360Z,16.65
2019-05-15T10:06:42.844Z,15.72
2019-05-15T10:09:14.355Z,17.17
2019-05-15T10:11:45.836Z,16.32
2019-05-15T10:14:19.511Z,15.83
2019-05-15T10:16:51.704Z,15.30
2019-05-15T10:19:23.082Z,16.23
2019-05-15T10:21:54.560Z,17.35
2019-05-15T10:24:27.971Z,16.12
2019-05-15T10:26:59.099Z,16.57
2019-05-15T10:29:30.578Z,16.37
2019-05-15T10:32:02.444Z,17.25
2019-05-15T10:34:33.892Z,17.15
2019-05-15T10:37:05.345Z,16.30
2019-05-15T10:39:38.436Z,16.85
2019-05-15T10:42:10.292Z,17.90
2019-05-15T10:44:41.629Z,17.85
2019-05-15T10:47:13.011Z,17.52
2019-05-15T10:49:44.401Z,17.95
2019-05-15T10:52:17.861Z,17.00
2019-05-15T10:54:49.071Z,17.50
2019-05-15T10:57:20.590Z,16.42
2019-05-15T10:59:51.964Z,17.55
2019-05-15T11:02:23.347Z,18.17
2019-05-15T11:04:54.920Z,17.60
2019-05-15T11:07:28.457Z,18.90
2019-05-15T11:09:59.600Z,18.85
2019-05-15T11:12:31.097Z,18.90
2019-05-15T11:15:02.719Z,17.52
2019-05-15T11:17:34.192Z,18.10
2019-05-15T11:20:08.271Z,18.70
2019-05-15T11:22:42.917Z,18.40
2019-05-15T11:25:12.506Z,18.42
2019-05-15T11:27:43.940Z,17.73
2019-05-15T11:30:15.939Z,15.68
2019-05-15T11:32:49.175Z,18.25
2019-05-15T11:35:20.639Z,18.42
2019-05-15T11:37:56.604Z,18.75
2019-05-15T11:40:25.133Z,17.02
2019-05-15T11:42:56.602Z,17.02
2019-05-15T11:45:29.097Z,16.65
2019-05-15T11:48:01.091Z,15.48
2019-05-15T11:50:32.632Z,15.50
2019-05-15T11:53:04.072Z,15.20
2019-05-15T11:55:35.462Z,16.07
2019-05-15T11:58:09.318Z,14.23
2019-05-15T12:00:40.226Z,14.43
2019-05-15T12:03:11.582Z,15.18
2019-05-15T12:05:43.077Z,12.98
2019-05-15T12:08:14.481Z,13.03
2019-05-15T12:10:45.923Z,12.70
2019-05-15T12:13:18.982Z,13.40
2019-05-15T12:15:50.560Z,13.60
2019-05-15T12:18:22.169Z,14.73
2019-05-15T12:20:53.534Z,15.40
2019-05-15T12:23:25.401Z,16.30
2019-05-15T12:25:59.718Z,16.12
2019-05-15T12:28:30.044Z,15.85
2019-05-15T12:31:01.413Z,16.15
2019-05-15T12:33:32.808Z,14.70
2019-05-15T12:36:04.831Z,15.58
2019-05-15T12:38:39.517Z,15.28
2019-05-15T13:01:35.614Z,13.78
2019-05-15T13:04:08.276Z,13.38
2019-05-15T13:06:47.688Z,15.08
2019-05-15T13:09:13.077Z,13.70
2019-05-15T13:11:44.504Z,13.58
2019-05-15T13:14:15.911Z,13.25
2019-05-15T13:16:48.041Z,13.38
2019-05-15T13:19:19.950Z,13.20
2019-05-15T13:21:51.657Z,12.95
2019-05-15T13:24:23.179Z,12.58
2019-05-15T13:26:54.485Z,11.70
2019-05-15T13:29:28.998Z,11.95
2019-05-15T13:32:00.257Z,11.08
2019-05-15T13:34:31.805Z,10.90
2019-05-15T13:37:03.233Z,11.95
2019-05-15T13:39:34.726Z,12.07
2019-05-15T13:42:06.238Z,11.75
2019-05-15T13:44:38.695Z,11.45
2019-05-15T13:47:10.312Z,10.75
2019-05-15T13:49:41.710Z,11.03
2019-05-15T13:52:13.125Z,11.35
2019-05-15T13:54:48.233Z,10.75
2019-05-15T13:57:19.009Z,11.40
2019-05-15T13:59:50.406Z,11.85
2019-05-15T14:02:21.828Z,11.45
2019-05-15T14:04:54.402Z,11.78
2019-05-15T14:07:25.941Z,11.30
2019-05-15T14:09:59.835Z,11.83
2019-05-15T14:12:30.529Z,11.88
2019-05-15T14:15:02.082Z,11.70
2019-05-15T14:17:33.547Z,11.78
2019-05-15T14:20:08.727Z,12.45
2019-05-15T14:25:10.641Z,21.62
2019-05-15T14:27:42.378Z,13.08
2019-05-15T14:30:13.981Z,13.98
2019-05-15T14:32:48.259Z,27.30
2019-05-15T14:35:18.647Z,14.70
2019-05-15T14:38:02.578Z,13.15
2019-05-15T14:40:23.161Z,12.53
2019-05-15T14:42:59.158Z,12.30
2019-05-15T14:45:29.231Z,11.55
2019-05-15T14:48:00.711Z,11.73
2019-05-15T14:50:33.845Z,12.85
2019-05-15T14:53:06.274Z,11.43
2019-05-15T14:55:43.153Z,11.93
2019-05-15T14:58:12.414Z,12.50
2019-05-15T15:00:43.885Z,11.08
2019-05-15T15:03:18.414Z,11.35
2019-05-15T15:05:50.030Z,11.88
2019-05-15T15:08:24.909Z,11.80
2019-05-15T15:10:54.524Z,11.45
2019-05-15T15:13:28.830Z,10.88
2019-05-15T15:15:59.989Z,11.57
2019-05-15T15:18:31.361Z,12.18
2019-05-15T15:21:02.885Z,11.83
2019-05-15T15:23:34.286Z,11.73
2019-05-15T15:26:05.660Z,11.35
2019-05-15T15:28:37.179Z,11.73
2019-05-15T15:31:08.598Z,11.53
2019-05-15T15:33:40.020Z,11.95
2019-05-15T15:36:11.561Z,12.35
2019-05-15T15:38:44.097Z,12.70
2019-05-15T15:41:18.152Z,13.53
2019-05-15T15:43:52.232Z,13.30
2019-05-15T15:46:22.638Z,14.05
2019-05-15T15:48:54.006Z,12.78
2019-05-15T15:51:25.610Z,14.00
2019-05-15T15:53:56.987Z,14.50
2019-05-15T15:56:29.091Z,13.40
2019-05-15T15:59:01.718Z,13.28
2019-05-15T16:01:33.221Z,12.53
2019-05-15T16:04:04.708Z,13.55
2019-05-15T16:06:38.564Z,13.68
2019-05-15T16:09:18.943Z,13.70
2019-05-15T16:11:50.442Z,14.95
2019-05-15T16:14:21.791Z,14.75
2019-05-15T16:16:53.241Z,15.03
2019-05-15T16:19:24.591Z,14.38
2019-05-15T16:21:59.445Z,14.15
2019-05-15T16:24:31.700Z,14.58
2019-05-15T16:27:03.203Z,15.32
2019-05-15T16:29:34.594Z,15.58
2019-05-15T16:32:08.749Z,14.13
2019-05-15T16:34:40.249Z,14.45
2019-05-15T16:37:11.655Z,13.95
2019-05-15T16:39:44.240Z,13.95
2019-05-15T16:42:18.041Z,13.75
2019-05-15T16:44:50.470Z,14.93
2019-05-15T16:47:27.834Z,14.15
2019-05-15T16:49:58.497Z,15.05
2019-05-15T16:52:31.149Z,14.25
2019-05-15T16:55:03.348Z,17.85
2019-05-15T16:57:38.631Z,19.07
2019-05-15T17:00:11.418Z,18.10
2019-05-15T17:02:42.841Z,32.63
2019-05-15T17:05:15.336Z,18.45
2019-05-15T17:07:48.832Z,19.05
2019-05-15T17:10:20.080Z,18.35
2019-05-15T17:12:51.590Z,17.92
2019-05-15T17:15:23.006Z,20.20
2019-05-15T17:17:54.483Z,19.82
2019-05-15T17:20:28.258Z,23.70
2019-05-15T17:22:59.224Z,21.80
2019-05-15T17:25:30.593Z,21.00
2019-05-15T17:28:02.101Z,22.73
2019-05-15T17:30:33.792Z,21.75
2019-05-15T17:33:05.421Z,25.23
2019-05-15T17:35:38.102Z,23.62
2019-05-15T17:38:11.131Z,27.32
2019-05-15T17:40:43.632Z,24.02
2019-05-15T17:43:17.635Z,23.73
2019-05-15T17:45:48.776Z,22.70
2019-05-15T17:48:20.380Z,25.17
2019-05-15T17:50:52.780Z,24.25
2019-05-15T17:53:24.458Z,24.75
2019-05-15T17:55:58.446Z,24.32
2019-05-15T17:58:30.243Z,25.55
2019-05-15T18:01:03.228Z,22.05
2019-05-15T18:03:39.320Z,24.35
2019-05-15T18:06:10.878Z,24.12
2019-05-15T18:08:43.016Z,23.52
2019-05-15T18:11:14.434Z,24.75
2019-05-15T18:13:45.863Z,25.90
2019-05-15T18:16:18.261Z,22.80
2019-05-15T18:18:49.909Z,24.43
2019-05-15T18:21:21.798Z,24.35
2019-05-15T18:23:53.264Z,23.57
2019-05-15T18:26:24.720Z,23.83
2019-05-15T18:28:58.335Z,22.50
2019-05-15T18:31:30.529Z,24.70
2019-05-15T18:34:02.039Z,23.07
2019-05-15T18:36:35.405Z,23.18
2019-05-15T18:39:10.148Z,25.20
2019-05-15T18:41:41.619Z,26.73
2019-05-15T18:44:13.171Z,26.17
2019-05-15T18:46:44.732Z,24.07
2019-05-15T18:49:17.981Z,25.12
2019-05-15T18:51:49.386Z,23.83
2019-05-15T18:54:20.888Z,23.35
2019-05-15T18:56:52.431Z,23.30
2019-05-15T18:59:24.101Z,25.27
2019-05-15T19:01:55.581Z,27.70
2019-05-15T19:04:28.820Z,25.95
2019-05-15T19:07:00.414Z,24.25
2019-05-15T19:09:31.956Z,25.77
2019-05-15T19:12:03.525Z,24.55
2019-05-15T19:14:39.409Z,27.30
2019-05-15T19:17:09.465Z,28.02
2019-05-15T19:19:40.966Z,27.00
2019-05-15T19:22:12.627Z,26.15
2019-05-15T19:24:44.157Z,26.27
2019-05-15T19:27:18.494Z,29.15
2019-05-15T19:29:50.402Z,27.62
2019-05-15T19:32:22.082Z,26.80
2019-05-15T19:34:56.246Z,25.75
2019-05-15T19:37:29.362Z,26.80
2019-05-15T19:40:01.321Z,26.20
2019-05-15T19:42:34.066Z,28.30
2019-05-15T19:45:08.518Z,26.23
2019-05-15T19:47:40.240Z,25.55
2019-05-15T19:50:13.419Z,26.77
2019-05-15T19:52:59.891Z,25.68
2019-05-15T19:55:34.511Z,26.65
2019-05-15T19:58:05.938Z,29.12
2019-05-15T20:00:38.737Z,29.42
2019-05-15T20:03:10.734Z,26.50
2019-05-15T20:05:43.845Z,25.65
2019-05-15T20:08:15.374Z,24.95
2019-05-15T20:10:47.908Z,27.37
2019-05-15T20:13:21.157Z,28.53
2019-05-15T20:15:52.992Z,27.25
2019-05-15T20:18:27.707Z,26.05
2019-05-15T20:20:58.973Z,25.88
2019-05-15T20:23:31.665Z,26.60
2019-05-15T20:26:03.270Z,26.55
2019-05-15T20:28:34.747Z,26.85
2019-05-15T20:31:07.923Z,26.27
2019-05-15T20:33:39.461Z,26.15
2019-05-15T20:36:11.346Z,28.83
2019-05-15T20:38:43.716Z,30.30
2019-05-15T20:41:15.164Z,28.23
2019-05-15T20:43:48.961Z,26.23
2019-05-15T20:46:19.999Z,27.87
2019-05-15T20:48:51.420Z,26.48
2019-05-15T20:51:22.921Z,28.42
2019-05-15T20:53:54.330Z,29.20
2019-05-15T20:56:28.149Z,29.05
2019-05-15T20:59:01.802Z,30.62
2019-05-15T21:01:33.755Z,30.70
2019-05-15T21:04:18.518Z,30.43
2019-05-15T21:06:38.845Z,27.32
2019-05-15T21:09:10.503Z,30.82
2019-05-15T21:11:42.182Z,30.30
2019-05-15T21:14:13.611Z,30.37
2019-05-15T21:16:45.139Z,30.68
2019-05-15T21:19:18.800Z,32.70
2019-05-15T21:21:49.843Z,32.13
2019-05-15T21:24:21.275Z,29.10
2019-05-15T21:26:52.827Z,33.45
2019-05-15T21:29:24.199Z,32.75
2019-05-15T21:31:58.000Z,32.08
2019-05-15T21:34:36.976Z,33.13
2019-05-15T21:37:05.460Z,33.53
2019-05-15T21:39:39.171Z,32.58
2019-05-15T21:42:10.043Z,32.85
2019-05-15T21:44:41.362Z,33.83
2019-05-15T21:47:12.794Z,37.38
2019-05-15T21:49:44.328Z,36.10
2019-05-15T21:52:18.546Z,36.90
2019-05-15T21:54:50.506Z,39.83
2019-05-15T21:57:32.790Z,38.65
2019-05-15T21:59:55.158Z,39.67
2019-05-15T22:02:29.208Z,40.20
2019-05-15T22:04:59.805Z,42.08
2019-05-15T22:07:31.203Z,45.60
2019-05-15T22:10:02.562Z,46.37
2019-05-15T22:12:34.306Z,47.83
2019-05-15T22:15:09.039Z,51.63
2019-05-15T22:17:40.830Z,51.45
2019-05-15T22:20:13.008Z,50.15
2019-05-15T22:22:44.614Z,51.95
2019-05-15T22:25:18.782Z,52.00
2019-05-15T22:27:49.626Z,53.30
2019-05-15T22:30:23.777Z,53.83
2019-05-15T22:32:55.237Z,53.50
2019-05-15T22:35:29.096Z,54.90
2019-05-15T22:37:59.744Z,53.95
2019-05-15T22:40:31.187Z,52.10
2019-05-15T22:43:02.566Z,54.63
2019-05-15T22:45:34.023Z,53.95
2019-05-15T22:48:05.615Z,53.08
2019-05-15T22:50:38.413Z,54.15
2019-05-15T22:53:09.963Z,54.58
2019-05-15T22:55:41.428Z,56.70
2019-05-15T22:58:13.029Z,55.75
2019-05-15T23:00:48.690Z,54.13
2019-05-15T23:03:19.152Z,54.33
2019-05-15T23:05:50.736Z,55.20
2019-05-15T23:08:22.240Z,52.98
2019-05-15T23:10:54.071Z,53.02
2019-05-15T23:13:25.496Z,52.73
2019-05-15T23:15:58.412Z,51.00
2019-05-15T23:18:30.228Z,52.35
2019-05-15T23:21:02.592Z,52.55
2019-05-15T23:23:34.050Z,51.42
2019-05-15T23:26:05.425Z,50.12
2019-05-15T23:28:38.648Z,47.43
2019-05-15T23:31:10.065Z,47.88
2019-05-15T23:33:41.537Z,48.38
2019-05-15T23:36:12.998Z,46.42
2019-05-15T23:38:44.540Z,45.98
2019-05-15T23:41:15.968Z,46.13
2019-05-15T23:43:48.236Z,44.48
2019-05-15T23:46:19.862Z,43.70
2019-05-15T23:48:52.922Z,42.98
2019-05-15T23:51:24.211Z,44.58
2019-05-15T23:53:55.720Z,46.37
2019-05-15T23:56:29.109Z,44.88
2019-05-15T23:59:00.446Z,46.75
